createdAt,value
2023-03-06T00:01:19.522Z,4.97
2023-03-06T00:03:47.703Z,5.10
2023-03-06T00:06:15.989Z,5.13
2023-03-06T00:08:45.507Z,5.07
2023-03-06T00:11:15.397Z,4.93
2023-03-06T00:13:43.505Z,4.90
2023-03-06T00:16:11.724Z,5.20
2023-03-06T00:18:39.847Z,5.80
2023-03-06T00:21:09.303Z,5.47
2023-03-06T00:23:37.547Z,5.43
2023-03-06T00:26:10.131Z,5.60
2023-03-06T00:28:38.671Z,5.87
2023-03-06T00:31:07.128Z,5.30
2023-03-06T00:33:35.207Z,5.67
2023-03-06T00:36:06.465Z,5.63
2023-03-06T00:38:35.569Z,5.90
2023-03-06T00:41:10.505Z,5.50
2023-03-06T00:43:38.737Z,5.27
2023-03-06T00:46:07.407Z,5.50
2023-03-06T00:48:36.373Z,5.80
2023-03-06T00:51:04.829Z,6.07
2023-03-06T00:53:32.931Z,5.80
2023-03-06T00:56:01.049Z,5.97
2023-03-06T00:58:30.461Z,6.07
2023-03-06T01:00:58.643Z,6.50
2023-03-06T01:03:26.759Z,6.70
2023-03-06T01:05:54.837Z,6.10
2023-03-06T01:08:22.982Z,5.90
2023-03-06T01:10:51.094Z,6.57
2023-03-06T01:13:19.286Z,6.67
2023-03-06T01:15:49.118Z,7.10
2023-03-06T01:18:17.272Z,6.63
2023-03-06T01:20:45.513Z,6.60
2023-03-06T01:23:13.641Z,6.67
2023-03-06T01:25:41.828Z,6.63
2023-03-06T01:28:09.937Z,6.27
2023-03-06T01:30:38.049Z,6.13
2023-03-06T01:33:07.550Z,6.13
2023-03-06T01:35:35.720Z,6.97
2023-03-06T01:38:03.832Z,6.37
2023-03-06T01:40:33.553Z,6.30
2023-03-06T01:43:11.351Z,7.30
2023-03-06T01:46:24.148Z,6.47
2023-03-06T01:48:58.569Z,6.50
2023-03-06T01:51:31.907Z,6.40
2023-03-06T01:54:06.202Z,6.17
2023-03-06T01:56:34.813Z,6.20
2023-03-06T01:59:03.725Z,6.50
2023-03-06T02:01:33.830Z,6.47
2023-03-06T02:04:07.518Z,6.47
2023-03-06T02:06:39.866Z,6.40
2023-03-06T02:09:08.314Z,6.83
2023-03-06T02:11:36.531Z,7.30
2023-03-06T02:14:04.925Z,5.90
2023-03-06T02:16:35.058Z,6.43
2023-03-06T02:19:10.039Z,6.57
2023-03-06T02:21:39.092Z,7.00
2023-03-06T02:24:33.352Z,6.77
2023-03-06T02:27:07.333Z,6.73
2023-03-06T02:29:35.548Z,7.03
2023-03-06T02:32:03.760Z,6.33
2023-03-06T02:34:56.355Z,6.63
2023-03-06T02:37:29.147Z,6.57
2023-03-06T02:40:09.104Z,6.10
2023-03-06T02:42:38.741Z,6.20
2023-03-06T02:45:13.281Z,5.87
2023-03-06T02:47:41.423Z,6.00
2023-03-06T02:50:11.257Z,6.03
2023-03-06T02:52:39.384Z,6.00
2023-03-06T02:55:09.204Z,6.10
2023-03-06T02:57:38.675Z,5.63
2023-03-06T03:00:08.695Z,5.80
2023-03-06T03:02:37.381Z,6.37
2023-03-06T03:05:06.896Z,6.20
2023-03-06T03:07:35.342Z,6.20
2023-03-06T03:10:04.079Z,6.13
2023-03-06T03:12:33.111Z,6.40
2023-03-06T03:15:02.578Z,6.33
2023-03-06T03:17:30.693Z,6.33
2023-03-06T03:19:59.105Z,6.77
2023-03-06T03:22:27.251Z,6.77
2023-03-06T03:24:55.454Z,6.53
2023-03-06T03:27:23.656Z,6.73
2023-03-06T03:29:51.912Z,6.47
2023-03-06T03:32:21.667Z,7.17
2023-03-06T03:34:49.840Z,7.20
2023-03-06T03:37:18.031Z,7.90
2023-03-06T03:39:46.174Z,7.07
2023-03-06T03:42:14.288Z,7.07
2023-03-06T03:44:42.371Z,7.33
2023-03-06T03:47:10.485Z,6.90
2023-03-06T03:49:40.531Z,7.53
2023-03-06T03:52:08.710Z,7.83
2023-03-06T03:54:36.869Z,7.13
2023-03-06T03:57:05.238Z,8.00
2023-03-06T03:59:33.332Z,7.90
2023-03-06T04:02:04.585Z,7.87
2023-03-06T04:04:32.886Z,7.97
2023-03-06T04:07:04.363Z,8.07
2023-03-06T04:09:32.718Z,8.40
2023-03-06T04:12:00.867Z,8.20
2023-03-06T04:14:28.987Z,7.73
2023-03-06T04:16:57.121Z,8.60
2023-03-06T04:19:25.264Z,8.03
2023-03-06T04:21:53.428Z,8.20
2023-03-06T04:24:22.895Z,8.17
2023-03-06T04:26:51.285Z,7.90
2023-03-06T04:29:19.387Z,7.80
2023-03-06T04:31:47.564Z,7.87
2023-03-06T04:34:15.899Z,7.33
2023-03-06T04:36:45.065Z,8.40
2023-03-06T04:39:14.026Z,8.07
2023-03-06T04:41:44.033Z,7.90
2023-03-06T04:44:12.420Z,8.20
2023-03-06T04:46:42.725Z,8.37
2023-03-06T04:49:10.848Z,7.83
2023-03-06T04:51:39.129Z,8.40
2023-03-06T04:54:07.365Z,8.00
2023-03-06T04:56:35.492Z,8.60
2023-03-06T04:59:05.315Z,7.63
2023-03-06T05:01:33.515Z,8.57
2023-03-06T05:04:01.691Z,8.50
2023-03-06T05:06:29.862Z,8.53
2023-03-06T05:08:58.120Z,8.57
2023-03-06T05:11:26.274Z,8.60
2023-03-06T05:13:54.413Z,7.97
2023-03-06T05:16:24.008Z,9.00
2023-03-06T05:18:52.159Z,8.27
2023-03-06T05:21:20.296Z,9.03
2023-03-06T05:23:48.461Z,8.50
2023-03-06T05:26:17.165Z,8.50
2023-03-06T05:28:45.289Z,10.93
2023-03-06T05:31:13.411Z,8.83
2023-03-06T05:33:42.963Z,9.60
2023-03-06T05:36:11.563Z,9.20
2023-03-06T05:38:39.730Z,8.73
2023-03-06T05:41:07.878Z,9.03
2023-03-06T05:43:36.014Z,9.47
2023-03-06T05:46:06.657Z,9.20
2023-03-06T05:48:37.414Z,9.40
2023-03-06T05:51:07.435Z,9.73
2023-03-06T05:53:35.578Z,8.47
2023-03-06T05:56:08.747Z,9.03
2023-03-06T05:58:37.322Z,9.03
2023-03-06T06:01:11.084Z,8.23
2023-03-06T06:03:39.791Z,8.17
2023-03-06T06:06:12.685Z,9.30
2023-03-06T06:08:41.975Z,9.53
2023-03-06T06:11:12.480Z,8.10
2023-03-06T06:13:41.661Z,8.23
2023-03-06T06:16:11.855Z,8.17
2023-03-06T06:18:41.477Z,7.43
2023-03-06T06:21:14.388Z,8.50
2023-03-06T06:23:43.438Z,8.50
2023-03-06T06:26:12.410Z,8.30
2023-03-06T06:28:40.581Z,7.93
2023-03-06T06:31:10.990Z,8.50
2023-03-06T06:33:39.355Z,9.00
2023-03-06T06:36:18.135Z,8.63
2023-03-06T06:38:46.362Z,8.10
2023-03-06T06:44:08.520Z,8.10
2023-03-06T06:49:26.541Z,8.47
2023-03-06T06:51:56.027Z,8.73
2023-03-06T06:54:24.302Z,9.23
2023-03-06T06:56:53.101Z,9.07
2023-03-06T06:59:23.560Z,7.93
2023-03-06T07:01:52.181Z,8.33
2023-03-06T07:04:20.549Z,8.33
2023-03-06T07:06:48.752Z,8.17
2023-03-06T07:09:18.261Z,7.60
2023-03-06T07:11:46.409Z,7.87
2023-03-06T07:14:14.629Z,8.63
2023-03-06T07:16:42.748Z,8.30
2023-03-06T07:19:10.921Z,8.30
2023-03-06T07:21:39.055Z,8.93
2023-03-06T07:24:07.510Z,8.83
2023-03-06T07:26:37.051Z,8.83
2023-03-06T07:29:05.852Z,9.07
2023-03-06T07:31:34.261Z,8.63
2023-03-06T07:34:04.820Z,8.93
2023-03-06T07:36:34.553Z,9.10
2023-03-06T07:39:02.735Z,8.77
2023-03-06T07:41:30.826Z,9.53
2023-03-06T07:44:01.193Z,9.03
2023-03-06T07:46:29.643Z,8.97
2023-03-06T07:48:58.200Z,9.30
2023-03-06T07:51:26.435Z,9.13
2023-03-06T07:53:54.787Z,9.77
2023-03-06T07:56:24.298Z,9.33
2023-03-06T07:58:52.382Z,9.87
2023-03-06T08:01:24.487Z,10.00
2023-03-06T08:03:53.273Z,9.50
2023-03-06T08:06:24.702Z,9.93
2023-03-06T08:08:55.548Z,9.80
2023-03-06T08:11:27.196Z,10.23
2023-03-06T08:13:56.313Z,11.23
2023-03-06T08:16:29.016Z,10.70
2023-03-06T08:18:57.772Z,10.80
2023-03-06T08:21:28.728Z,9.67
2023-03-06T08:23:57.247Z,10.00
2023-03-06T08:26:28.056Z,9.60
2023-03-06T08:28:58.779Z,9.67
2023-03-06T08:31:32.745Z,10.10
2023-03-06T08:34:04.676Z,9.83
2023-03-06T08:36:32.887Z,10.00
2023-03-06T08:39:01.842Z,9.57
2023-03-06T08:41:30.454Z,9.93
2023-03-06T08:43:59.170Z,10.37
2023-03-06T08:46:30.268Z,9.70
2023-03-06T08:48:59.434Z,10.40
2023-03-06T08:51:28.881Z,9.30
2023-03-06T08:53:58.052Z,9.17
2023-03-06T08:56:29.317Z,9.10
2023-03-06T08:58:59.846Z,9.80
2023-03-06T09:01:32.073Z,10.03
2023-03-06T09:04:03.514Z,9.93
2023-03-06T09:06:34.997Z,9.90
2023-03-06T09:09:03.683Z,10.10
2023-03-06T09:11:32.054Z,9.80
2023-03-06T09:14:00.758Z,9.60
2023-03-06T09:16:30.363Z,9.30
2023-03-06T09:18:58.778Z,10.27
2023-03-06T09:21:28.561Z,10.50
2023-03-06T09:23:57.032Z,10.10
2023-03-06T09:26:39.470Z,10.07
2023-03-06T09:29:12.517Z,9.27
2023-03-06T09:31:42.044Z,10.20
2023-03-06T09:34:10.108Z,9.33
2023-03-06T09:36:54.934Z,9.80
2023-03-06T09:39:24.960Z,10.00
2023-03-06T09:41:53.792Z,10.13
2023-03-06T09:44:27.547Z,10.00
2023-03-06T09:47:35.790Z,9.53
2023-03-06T09:50:31.448Z,10.27
2023-03-06T09:53:17.834Z,9.37
2023-03-06T09:55:58.081Z,10.30
2023-03-06T09:58:30.943Z,9.77
2023-03-06T10:01:05.653Z,10.67
2023-03-06T10:03:47.377Z,10.87
2023-03-06T10:06:24.176Z,11.57
2023-03-06T10:09:02.137Z,11.43
2023-03-06T10:11:40.292Z,12.20
2023-03-06T10:14:22.521Z,11.67
2023-03-06T10:16:50.888Z,11.70
2023-03-06T10:19:23.008Z,11.70
2023-03-06T10:22:02.143Z,12.13
2023-03-06T10:24:53.383Z,12.63
2023-03-06T10:27:35.697Z,13.43
2023-03-06T10:30:24.793Z,13.03
2023-03-06T10:32:58.567Z,13.77
2023-03-06T10:35:33.393Z,14.67
2023-03-06T10:38:16.631Z,14.53
2023-03-06T10:41:09.847Z,15.10
2023-03-06T10:43:41.329Z,14.07
2023-03-06T10:46:12.255Z,14.73
2023-03-06T10:48:42.900Z,13.87
2023-03-06T10:51:19.541Z,13.80
2023-03-06T10:53:54.673Z,14.00
2023-03-06T10:56:32.980Z,14.60
2023-03-06T10:59:12.022Z,14.60
2023-03-06T11:01:41.313Z,15.00
2023-03-06T11:04:29.608Z,13.50
2023-03-06T11:07:19.502Z,14.07
2023-03-06T11:10:17.813Z,13.57
2023-03-06T11:12:59.743Z,13.83
2023-03-06T11:15:28.455Z,13.60
2023-03-06T11:18:01.627Z,13.63
2023-03-06T11:20:50.113Z,13.37
2023-03-06T11:23:34.309Z,14.33
2023-03-06T11:26:20.625Z,13.77
2023-03-06T11:29:01.376Z,13.03
2023-03-06T11:31:34.760Z,14.37
2023-03-06T11:34:10.534Z,14.40
2023-03-06T11:36:46.220Z,13.07
2023-03-06T11:39:25.868Z,13.47
2023-03-06T11:42:04.344Z,13.77
2023-03-06T11:44:52.820Z,13.40
2023-03-06T11:47:29.140Z,12.43
2023-03-06T11:50:17.797Z,13.40
2023-03-06T11:52:52.452Z,14.17
2023-03-06T11:55:39.949Z,13.60
2023-03-06T11:58:51.458Z,13.43
2023-03-06T12:01:29.233Z,13.77
2023-03-06T12:04:43.266Z,12.53
2023-03-06T12:07:34.002Z,12.53
2023-03-06T12:10:18.132Z,12.17
2023-03-06T12:13:34.899Z,11.23
2023-03-06T12:16:41.750Z,10.87
2023-03-06T12:19:30.739Z,10.73
2023-03-06T12:22:21.850Z,11.50
2023-03-06T12:25:20.968Z,11.23
2023-03-06T12:28:06.943Z,11.43
2023-03-06T12:31:03.134Z,12.93
2023-03-06T12:33:45.739Z,11.97
2023-03-06T12:36:42.540Z,10.83
2023-03-06T12:39:21.883Z,9.67
2023-03-06T12:42:06.764Z,9.23
2023-03-06T12:45:18.553Z,9.73
2023-03-06T12:47:51.403Z,8.63
2023-03-06T12:50:25.022Z,8.60
2023-03-06T12:52:55.960Z,8.10
2023-03-06T12:55:26.067Z,9.03
2023-03-06T12:57:54.635Z,7.37
2023-03-06T13:01:04.624Z,6.07
2023-03-06T13:03:55.296Z,6.10
2023-03-06T13:06:51.667Z,6.47
2023-03-06T13:09:32.015Z,5.67
2023-03-06T13:12:28.768Z,6.17
2023-03-06T13:15:02.416Z,6.70
2023-03-06T13:17:40.950Z,6.13
2023-03-06T13:20:45.628Z,6.57
2023-03-06T13:23:52.224Z,7.00
2023-03-06T13:26:59.001Z,7.40
2023-03-06T13:30:05.004Z,7.67
2023-03-06T13:32:36.902Z,7.07
2023-03-06T13:35:52.089Z,8.07
2023-03-06T13:38:54.696Z,8.70
2023-03-06T13:41:59.339Z,8.83
2023-03-06T13:44:51.291Z,9.03
2023-03-06T13:48:19.574Z,10.40
2023-03-06T13:50:44.485Z,9.63
2023-03-06T13:53:45.046Z,9.67
2023-03-06T13:57:07.848Z,10.87
2023-03-06T14:00:36.331Z,11.23
2023-03-06T14:03:42.068Z,9.97
2023-03-06T14:06:52.653Z,9.93
2023-03-06T14:09:29.553Z,10.63
2023-03-06T14:12:03.509Z,11.00
2023-03-06T14:14:42.770Z,9.73
2023-03-06T14:17:26.546Z,9.80
2023-03-06T14:19:57.482Z,10.97
2023-03-06T14:22:26.056Z,9.50
2023-03-06T14:25:02.066Z,9.77
2023-03-06T14:27:43.957Z,9.67
2023-03-06T14:30:17.101Z,9.43
2023-03-06T14:32:45.987Z,9.73
2023-03-06T14:35:25.461Z,9.37
2023-03-06T14:37:58.308Z,8.87
2023-03-06T14:40:33.265Z,9.93
2023-03-06T14:43:28.753Z,9.37
2023-03-06T14:45:59.480Z,10.13
2023-03-06T14:48:40.078Z,9.67
2023-03-06T14:51:16.681Z,8.70
2023-03-06T14:53:46.892Z,9.73
2023-03-06T14:56:20.374Z,10.07
2023-03-06T14:59:00.412Z,9.77
2023-03-06T15:01:38.016Z,10.10
2023-03-06T15:04:20.056Z,9.87
2023-03-06T15:06:48.514Z,9.47
2023-03-06T15:09:21.559Z,9.63
2023-03-06T15:12:01.160Z,10.10
2023-03-06T15:14:35.800Z,9.87
2023-03-06T15:17:24.715Z,10.57
2023-03-06T15:19:55.558Z,10.17
2023-03-06T15:22:30.816Z,10.73
2023-03-06T15:25:26.522Z,10.60
2023-03-06T15:28:00.456Z,10.30
2023-03-06T15:30:32.772Z,10.77
2023-03-06T15:33:20.546Z,10.70
2023-03-06T15:35:57.004Z,10.57
2023-03-06T15:38:34.858Z,10.50
2023-03-06T15:41:05.382Z,11.27
2023-03-06T15:43:40.572Z,11.03
2023-03-06T15:46:08.975Z,10.50
2023-03-06T15:48:37.127Z,8.50
2023-03-06T15:51:05.890Z,7.27
2023-03-06T15:53:34.029Z,7.83
2023-03-06T15:56:03.240Z,7.87
2023-03-06T15:58:35.967Z,7.63
2023-03-06T16:01:04.537Z,7.87
2023-03-06T16:03:32.813Z,7.53
2023-03-06T16:06:00.975Z,6.90
2023-03-06T16:08:29.079Z,7.77
2023-03-06T16:10:57.172Z,6.70
2023-03-06T16:13:29.733Z,7.53
2023-03-06T16:15:59.225Z,5.83
2023-03-06T16:18:27.334Z,6.83
2023-03-06T16:20:55.411Z,7.40
2023-03-06T16:23:23.501Z,7.07
2023-03-06T16:25:51.679Z,7.07
2023-03-06T16:28:19.840Z,7.53
2023-03-06T16:30:47.976Z,7.63
2023-03-06T16:33:17.481Z,7.70
2023-03-06T16:35:47.172Z,11.20
2023-03-06T16:38:16.204Z,10.40
2023-03-06T16:40:45.082Z,9.43
2023-03-06T16:43:15.976Z,7.13
2023-03-06T16:45:44.742Z,7.27
2023-03-06T16:48:20.724Z,7.60
2023-03-06T16:50:48.967Z,7.70
2023-03-06T16:53:18.056Z,7.67
2023-03-06T16:55:46.858Z,8.27
2023-03-06T16:58:15.180Z,7.97
2023-03-06T17:00:43.663Z,8.50
2023-03-06T17:03:11.831Z,8.63
2023-03-06T17:05:43.725Z,8.50
2023-03-06T17:08:12.521Z,8.27
2023-03-06T17:10:42.522Z,8.50
2023-03-06T17:13:10.692Z,8.53
2023-03-06T17:15:38.871Z,9.20
2023-03-06T17:18:07.221Z,8.73
2023-03-06T17:20:35.319Z,9.80
2023-03-06T17:23:04.885Z,9.00
2023-03-06T17:25:34.808Z,9.30
2023-03-06T17:28:02.902Z,8.53
2023-03-06T17:30:31.583Z,9.20
2023-03-06T17:33:00.317Z,8.57
2023-03-06T17:35:28.500Z,8.17
2023-03-06T17:37:58.014Z,8.00
2023-03-06T17:40:27.675Z,8.33
2023-03-06T17:42:55.790Z,7.33
2023-03-06T17:45:23.917Z,6.47
2023-03-06T17:47:55.345Z,7.30
2023-03-06T17:50:23.492Z,7.70
2023-03-06T17:52:51.621Z,7.50
2023-03-06T17:55:19.852Z,7.83
2023-03-06T17:57:49.275Z,7.70
2023-03-06T18:00:18.892Z,7.47
2023-03-06T18:02:47.004Z,7.27
2023-03-06T18:05:15.282Z,7.77
2023-03-06T18:07:47.778Z,8.00
2023-03-06T18:10:16.034Z,8.70
2023-03-06T18:12:44.157Z,8.40
2023-03-06T18:15:13.775Z,7.97
2023-03-06T18:17:41.902Z,8.17
2023-03-06T18:20:12.277Z,9.23
2023-03-06T18:22:40.420Z,9.40
2023-03-06T18:25:09.631Z,9.80
2023-03-06T18:27:37.758Z,9.57
2023-03-06T18:30:07.139Z,10.20
2023-03-06T18:32:36.924Z,9.40
2023-03-06T18:35:05.834Z,10.23
2023-03-06T18:37:33.928Z,9.90
2023-03-06T18:40:02.032Z,10.30
2023-03-06T18:42:30.142Z,10.13
2023-03-06T18:44:58.244Z,10.43
2023-03-06T18:47:26.510Z,9.97
2023-03-06T18:49:56.065Z,10.10
2023-03-06T18:52:24.213Z,10.43
2023-03-06T18:54:53.461Z,10.63
2023-03-06T18:57:21.592Z,10.33
2023-03-06T18:59:50.055Z,10.33
2023-03-06T19:02:18.366Z,9.83
2023-03-06T19:04:46.657Z,13.40
2023-03-06T19:07:16.205Z,13.80
2023-03-06T19:09:44.928Z,14.93
2023-03-06T19:12:13.172Z,14.60
2023-03-06T19:14:41.261Z,10.30
2023-03-06T19:17:09.349Z,10.77
2023-03-06T19:19:37.465Z,8.63
2023-03-06T19:22:05.675Z,10.00
2023-03-06T19:24:35.162Z,9.33
2023-03-06T19:27:03.345Z,9.83
2023-03-06T19:29:32.432Z,8.97
2023-03-06T19:32:00.609Z,9.33
2023-03-06T19:34:28.791Z,9.17
2023-03-06T19:36:56.910Z,9.47
2023-03-06T19:39:25.674Z,8.73
2023-03-06T19:41:55.148Z,9.87
2023-03-06T19:44:24.045Z,9.40
2023-03-06T19:46:52.236Z,10.13
2023-03-06T19:49:22.143Z,9.97
2023-03-06T19:51:50.313Z,10.00
2023-03-06T19:54:23.201Z,10.27
2023-03-06T19:56:51.572Z,10.67
2023-03-06T19:59:21.092Z,11.10
2023-03-06T20:01:49.272Z,11.50
2023-03-06T20:04:17.430Z,11.37
2023-03-06T20:06:46.674Z,9.93
2023-03-06T20:09:14.858Z,9.20
2023-03-06T20:11:43.029Z,10.17
2023-03-06T20:14:14.008Z,10.60
2023-03-06T20:16:43.483Z,11.10
2023-03-06T20:19:12.816Z,9.37
2023-03-06T20:21:41.030Z,9.83
2023-03-06T20:24:16.694Z,10.40
2023-03-06T20:26:45.920Z,10.40
2023-03-06T20:29:14.497Z,11.00
2023-03-06T20:31:43.971Z,10.27
2023-03-06T20:34:12.398Z,10.30
2023-03-06T20:36:41.431Z,11.87
2023-03-06T20:39:14.032Z,10.50
2023-03-06T20:41:42.811Z,11.03
2023-03-06T20:44:17.429Z,11.43
2023-03-06T20:46:47.364Z,12.10
2023-03-06T20:49:15.863Z,12.03
2023-03-06T20:51:44.035Z,12.07
2023-03-06T20:54:15.163Z,12.00
2023-03-06T20:56:47.929Z,12.27
2023-03-06T20:59:16.448Z,13.23
2023-03-06T21:01:48.010Z,14.00
2023-03-06T21:04:17.298Z,14.00
2023-03-06T21:06:47.322Z,13.93
2023-03-06T21:09:17.627Z,13.20
2023-03-06T21:11:46.398Z,12.60
2023-03-06T21:14:14.825Z,14.13
2023-03-06T21:16:43.508Z,13.57
2023-03-06T21:19:13.309Z,14.00
2023-03-06T21:21:41.625Z,12.80
2023-03-06T21:24:10.104Z,13.17
2023-03-06T21:26:38.300Z,14.07
2023-03-06T21:29:06.475Z,13.67
2023-03-06T21:31:34.750Z,12.70
2023-03-06T21:34:05.153Z,14.13
2023-03-06T21:36:35.227Z,13.70
2023-03-06T21:39:06.070Z,13.73
2023-03-06T21:41:34.707Z,13.77
2023-03-06T21:44:05.984Z,13.60
2023-03-06T21:46:34.731Z,13.43
2023-03-06T21:49:04.356Z,13.13
2023-03-06T21:51:34.747Z,14.50
2023-03-06T21:54:04.156Z,13.23
2023-03-06T21:56:33.475Z,13.97
2023-03-06T21:59:01.876Z,13.83
2023-03-06T22:01:30.787Z,14.13
2023-03-06T22:03:59.932Z,12.97
2023-03-06T22:06:31.296Z,12.63
2023-03-06T22:09:02.308Z,13.27
2023-03-06T22:11:36.963Z,13.23
2023-03-06T22:14:06.322Z,13.90
2023-03-06T22:16:34.676Z,13.53
2023-03-06T22:19:02.826Z,13.67
2023-03-06T22:21:30.949Z,13.23
2023-03-06T22:24:01.591Z,13.07
2023-03-06T22:26:30.722Z,13.73
2023-03-06T22:28:59.251Z,13.87
2023-03-06T22:31:29.618Z,13.90
2023-03-06T22:34:01.519Z,12.20
2023-03-06T22:36:31.719Z,13.27
2023-03-06T22:39:04.142Z,13.97
2023-03-06T22:41:32.775Z,14.10
2023-03-06T22:44:03.052Z,13.47
2023-03-06T22:46:32.598Z,14.10
2023-03-06T22:49:01.674Z,12.97
2023-03-06T22:51:30.493Z,13.47
2023-03-06T22:54:00.138Z,15.57
2023-03-06T22:56:28.490Z,14.60
2023-03-06T22:58:57.650Z,13.80
2023-03-06T23:01:29.300Z,14.47
2023-03-06T23:04:00.169Z,14.10
2023-03-06T23:06:31.692Z,14.27
2023-03-06T23:09:05.760Z,14.03
2023-03-06T23:11:34.918Z,13.97
2023-03-06T23:14:05.323Z,13.13
2023-03-06T23:16:34.035Z,13.50
2023-03-06T23:19:02.158Z,14.00
2023-03-06T23:21:30.250Z,14.70
2023-03-06T23:23:58.858Z,14.13
2023-03-06T23:26:30.784Z,15.07
2023-03-06T23:28:59.623Z,13.37
2023-03-06T23:31:30.850Z,14.20
2023-03-06T23:34:00.838Z,13.47
2023-03-06T23:36:30.709Z,14.30
2023-03-06T23:38:59.531Z,13.87
2023-03-06T23:41:29.053Z,13.87
2023-03-06T23:43:57.159Z,13.37
2023-03-06T23:46:25.327Z,13.90
2023-03-06T23:48:53.612Z,12.97
2023-03-06T23:51:23.649Z,13.73
2023-03-06T23:53:57.395Z,13.30
2023-03-06T23:56:26.851Z,12.67
2023-03-06T23:58:56.524Z,13.50
